Time;durP1;ratioP1;P1;durP2;ratioP2;P2;SDS_P1;SDS_P2;PMS_P1;PMS_P2;Temp;Humidity;BMP_temperature;BMP_pressure;BME280_temperature;BME280_humidity;BME280_pressure;Samples;Min_cycle;Max_cycle;Signal;HPM_P1;HPM_P2
2022/11/04 00:02:38;;;;;;;2.67;0.88;;;;;;;10.74;98.64;99445.56;6240298;23;20027;-74
2022/11/04 00:05:41;;;;;;;1.65;0.77;;;;;;;10.79;98.51;99427.78;6240479;23;20022;-74
2022/11/04 00:08:56;;;;;;;3.67;1.27;;;;;;;10.68;99.47;99444.19;6240463;23;20027;-74
2022/11/04 00:18:45;;;;;;;2.53;1.00;;;;;;;10.69;99.17;99468.59;6222150;23;20111;-73
2022/11/04 00:28:44;;;;;;;1.90;0.90;;;;;;;10.69;98.73;99464.19;6241223;23;20022;-73
2022/11/04 00:35:11;;;;;;;2.80;0.98;;;;;;;10.68;98.19;99464.28;6240098;23;20110;-74
2022/11/04 00:38:16;;;;;;;2.15;0.90;;;;;;;10.67;98.00;99483.53;6239997;23;20035;-74
2022/11/04 00:41:26;;;;;;;6.38;1.05;;;;;;;10.66;98.85;99474.03;6239364;23;20026;-74
2022/11/04 00:44:30;;;;;;;2.47;0.90;;;;;;;10.58;97.76;99482.38;6239870;23;20158;-74
2022/11/04 00:47:33;;;;;;;2.10;0.80;;;;;;;10.59;97.99;99473.63;6240684;23;20031;-74
2022/11/04 00:50:39;;;;;;;2.95;1.17;;;;;;;10.53;97.89;99483.63;6241137;23;20078;-73
2022/11/04 00:53:43;;;;;;;3.78;0.90;;;;;;;10.48;99.78;99484.78;6240789;23;20110;-74
2022/11/04 00:56:49;;;;;;;3.75;0.80;;;;;;;10.47;99.76;99479.69;6239510;23;20031;-74
2022/11/04 00:59:52;;;;;;;3.30;0.93;;;;;;;10.43;99.70;99486.03;6239966;23;20026;-73
2022/11/04 01:02:56;;;;;;;3.13;0.93;;;;;;;10.43;99.64;99493.88;6239885;23;20154;-74
2022/11/04 01:06:01;;;;;;;1.75;0.60;;;;;;;10.35;99.29;99507.47;6239920;23;20088;-73
2022/11/04 01:09:07;;;;;;;3.53;0.95;;;;;;;10.29;98.67;99518.34;6239576;23;20031;-74
2022/11/04 01:12:11;;;;;;;4.22;1.05;;;;;;;10.32;99.14;99517.31;6240630;23;20065;-73
2022/11/04 01:15:14;;;;;;;2.45;0.82;;;;;;;10.22;99.16;99514.44;6240485;22;20050;-73
2022/11/04 01:18:18;;;;;;;3.92;0.50;;;;;;;10.30;96.80;99524.41;6240418;23;20023;-74
2022/11/04 01:21:26;;;;;;;2.38;0.70;;;;;;;10.29;96.12;99523.56;6239013;23;20073;-73
2022/11/04 01:24:30;;;;;;;1.55;0.60;;;;;;;10.27;95.23;99528.03;6238480;23;20492;-74
2022/11/04 01:27:33;;;;;;;3.22;0.82;;;;;;;10.28;95.85;99540.19;6237858;23;20347;-74
2022/11/04 01:30:37;;;;;;;;;;;;;;;10.25;96.08;99537.75;6240190;23;20462;-74
2022/11/04 01:33:41;;;;;;;8.10;1.70;;;;;;;10.14;96.86;99550.66;6240222;23;20283;-73
2022/11/04 01:36:44;;;;;;;;;;;;;;;9.98;97.49;99562.13;6222496;23;20463;-73
2022/11/04 01:39:53;;;;;;;4.65;1.75;;;;;;;10.04;97.47;99565.28;6240066;23;19930;-73
2022/11/04 01:42:57;;;;;;;10.05;1.75;;;;;;;10.11;97.00;99561.31;6240520;23;20415;-73
2022/11/04 01:46:04;;;;;;;8.00;1.40;;;;;;;9.92;97.14;99573.00;6239551;23;20066;-73
2022/11/04 01:49:42;;;;;;;;;;;;;;;;;;;;;
2022/11/04 01:53:17;;;;;;;4.38;1.00;;;;;;;9.89;96.98;99562.75;6238617;23;20015;-73
2022/11/04 01:56:22;;;;;;;4.57;1.50;;;;;;;9.81;96.81;99565.00;6239459;23;20403;-74
2022/11/04 01:59:35;;;;;;;9.02;1.63;;;;;;;9.93;96.50;99565.97;6239329;23;20027;-74
2022/11/04 02:02:48;;;;;;;5.15;2.17;;;;;;;9.86;96.20;99565.53;6239376;23;20022;-73
2022/11/04 02:05:53;;;;;;;;;;;;;;;9.82;97.47;99565.81;6239799;23;20062;-73
2022/11/04 02:08:57;;;;;;;5.40;1.60;;;;;;;9.85;97.38;99561.25;6239088;23;19915;-74
2022/11/04 02:15:42;;;;;;;3.53;0.63;;;;;;;9.86;93.53;99552.50;6239206;22;20027;-73
2022/11/04 02:19:21;;;;;;;10.32;0.57;;;;;;;9.98;93.39;99543.84;6240052;23;20027;-73
2022/11/04 02:22:46;;;;;;;1.25;0.50;;;;;;;10.07;91.92;99549.41;6239427;23;20027;-73
2022/11/04 02:26:14;;;;;;;4.00;0.57;;;;;;;10.06;92.56;99555.56;6239476;23;20019;-73
2022/11/04 02:29:46;;;;;;;2.28;0.70;;;;;;;10.01;92.60;99561.91;6239443;23;20069;-74
2022/11/04 02:33:20;;;;;;;3.38;1.00;;;;;;;9.83;91.52;99557.03;6240336;23;20021;-73
2022/11/04 02:36:47;;;;;;;2.65;0.73;;;;;;;9.94;90.18;99560.66;6239198;23;20070;-73
2022/11/04 02:40:25;;;;;;;3.20;0.60;;;;;;;9.91;88.91;99554.78;6239246;23;20026;-73
2022/11/04 02:43:48;;;;;;;1.92;0.88;;;;;;;9.92;89.06;99566.91;6239083;23;20026;-74
2022/11/04 02:46:59;;;;;;;4.20;0.73;;;;;;;9.96;88.27;99566.63;6239594;23;20336;-73
2022/11/04 02:50:12;;;;;;;2.50;0.60;;;;;;;10.03;89.87;99574.88;6238551;23;20108;-74
2022/11/04 02:53:30;;;;;;;7.05;2.33;;;;;;;9.96;91.30;99581.47;6239666;23;20509;-74
2022/11/04 02:56:40;;;;;;;6.10;1.30;;;;;;;9.72;92.84;99582.06;6239374;23;20023;-74
2022/11/04 02:59:49;;;;;;;2.67;1.27;;;;;;;9.67;93.04;99575.50;6239276;23;20099;-74
2022/11/04 03:02:56;;;;;;;3.85;1.05;;;;;;;9.64;92.26;99584.34;6238936;23;20351;-73
2022/11/04 03:06:01;;;;;;;4.65;0.80;;;;;;;9.65;93.04;99580.78;6238835;23;20526;-73
2022/11/04 03:09:07;;;;;;;3.80;0.65;;;;;;;9.62;93.50;99581.00;6221444;23;20082;-73
2022/11/04 03:12:14;;;;;;;7.38;1.20;;;;;;;9.54;93.61;99593.69;6240103;23;20027;-73
2022/11/04 03:15:23;;;;;;;3.25;0.80;;;;;;;9.41;94.60;99591.03;6239618;22;20023;-73
2022/11/04 03:18:32;;;;;;;2.55;0.85;;;;;;;9.27;95.17;99598.84;6239360;23;20070;-73
2022/11/04 03:21:43;;;;;;;4.63;0.93;;;;;;;9.26;95.11;99598.00;6239877;23;20550;-73
2022/11/04 03:24:48;;;;;;;7.40;1.52;;;;;;;9.20;95.91;99594.94;6239979;23;20100;-73
2022/11/04 03:28:11;;;;;;;4.20;1.10;;;;;;;9.16;95.46;99591.69;6239986;23;20399;-73
2022/11/04 03:31:27;;;;;;;7.13;2.17;;;;;;;9.14;95.31;99579.69;6239046;23;20142;-73
2022/11/04 03:34:31;;;;;;;9.75;2.97;;;;;;;9.13;95.14;99583.22;6240502;23;20023;-73
2022/11/04 03:37:34;;;;;;;7.68;1.88;;;;;;;9.16;94.63;99583.88;6240998;23;20027;-73
2022/11/04 03:40:38;;;;;;;6.30;1.40;;;;;;;8.97;95.05;99584.16;6240839;23;20027;-73
2022/11/04 03:43:42;;;;;;;8.18;1.95;;;;;;;9.14;94.44;99584.88;6241642;23;20019;-73
2022/11/04 03:46:45;;;;;;;;;;;;;;;9.02;93.98;99589.06;6241606;23;20019;-73
2022/11/04 03:50:12;;;;;;;9.63;1.60;;;;;;;9.11;93.34;99585.06;6241385;23;19917;-73
2022/11/04 03:53:21;;;;;;;16.52;3.70;;;;;;;8.93;93.52;99593.06;6240634;23;20059;-73
2022/11/04 03:56:48;;;;;;;11.10;2.10;;;;;;;8.97;94.23;99605.00;6240478;23;20480;-73
2022/11/04 04:00:12;;;;;;;9.02;2.30;;;;;;;9.00;93.75;99615.25;6223043;23;20023;-73
2022/11/04 04:03:38;;;;;;;8.70;1.73;;;;;;;8.83;93.41;99612.81;6240539;23;20030;-73
2022/11/04 04:06:45;;;;;;;8.00;1.80;;;;;;;8.89;92.79;99622.88;6241465;23;20023;-73
2022/11/04 04:10:37;;;;;;;5.50;1.10;;;;;;;9.17;91.43;99626.44;6241630;23;20051;-73
2022/11/04 04:13:56;;;;;;;8.70;1.75;;;;;;;9.08;92.31;99620.00;6241456;23;20074;-73
2022/11/04 04:17:24;;;;;;;9.48;1.77;;;;;;;8.92;92.55;99632.28;6239777;23;20031;-73
2022/11/04 04:20:32;;;;;;;8.48;1.20;;;;;;;9.14;92.32;99639.66;6240526;23;20042;-73
2022/11/04 04:30:24;;;;;;;4.93;1.05;;;;;;;9.06;92.46;99634.88;6240088;23;20081;-73
2022/11/04 04:33:28;;;;;;;4.55;1.02;;;;;;;8.97;93.14;99630.25;6241339;23;20356;-73
2022/11/04 04:36:37;;;;;;;6.65;1.20;;;;;;;9.17;92.61;99631.66;6241360;23;20337;-73
2022/11/04 04:46:44;;;;;;;5.43;0.70;;;;;;;9.14;93.15;99626.63;6240534;23;20023;-73
2022/11/04 04:49:49;;;;;;;8.95;1.10;;;;;;;9.19;92.89;99624.56;6241204;23;20023;-73
2022/11/04 04:52:57;;;;;;;4.32;1.02;;;;;;;9.22;92.51;99613.94;6240994;23;20055;-73
2022/11/04 04:56:00;;;;;;;6.25;0.98;;;;;;;9.05;92.96;99607.16;6241099;23;20355;-73
2022/11/04 04:59:05;;;;;;;6.95;0.93;;;;;;;9.20;92.78;99610.59;6240722;23;20462;-73
2022/11/04 05:02:11;;;;;;;6.28;1.17;;;;;;;9.09;93.40;99608.63;6240706;23;20642;-73
2022/11/04 05:05:17;;;;;;;5.40;1.85;;;;;;;9.07;93.48;99606.13;6240110;23;20495;-72
2022/11/04 05:08:23;;;;;;;9.38;4.43;;;;;;;9.03;93.86;99602.03;6239972;23;20039;-73
2022/11/04 05:11:28;;;;;;;9.27;4.70;;;;;;;9.11;93.74;99595.50;6240353;23;20027;-73
2022/11/04 05:14:32;;;;;;;4.47;1.70;;;;;;;9.01;93.88;99598.69;6240060;23;20047;-73
2022/11/04 05:17:35;;;;;;;5.75;1.45;;;;;;;9.08;93.53;99607.78;6240207;23;20059;-73
2022/11/04 05:20:39;;;;;;;9.85;1.20;;;;;;;8.92;94.07;99596.63;6241118;23;20070;-73
2022/11/04 05:23:43;;;;;;;18.23;4.15;;;;;;;8.84;94.03;99585.81;6240622;23;20428;-73
2022/11/04 05:26:47;;;;;;;10.10;3.00;;;;;;;8.80;94.08;99602.56;6239613;23;20027;-73
2022/11/04 05:29:50;;;;;;;;;;;;;;;8.80;93.39;99608.59;6240602;23;20399;-73
2022/11/04 05:38:25;;;;;;;7.18;1.60;;;;;;;8.59;93.42;99620.31;6240709;23;20440;-73
2022/11/04 05:42:16;;;;;;;8.00;1.35;;;;;;;8.83;92.12;99623.22;6218490;23;20408;-73
2022/11/04 05:45:19;;;;;;;7.00;1.10;;;;;;;8.78;91.45;99631.34;6239313;23;20019;-73
2022/11/04 05:48:23;;;;;;;;;;;;;;;8.74;91.95;99626.38;6241094;23;20027;-73
2022/11/04 05:51:28;;;;;;;5.07;0.82;;;;;;;8.75;91.70;99613.28;6240527;23;20385;-73
2022/11/04 05:54:32;;;;;;;9.40;2.92;;;;;;;8.86;91.19;99617.84;6239259;23;20027;-73
2022/11/04 05:57:37;;;;;;;6.22;2.08;;;;;;;8.71;92.12;99623.94;6239354;23;20027;-73
2022/11/04 06:00:43;;;;;;;29.15;4.55;;;;;;;8.75;91.89;99635.91;6239485;23;20027;-73
2022/11/04 06:03:51;;;;;;;9.27;1.83;;;;;;;8.64;92.25;99641.72;6220741;23;20019;-73
2022/11/04 06:06:55;;;;;;;5.50;1.60;;;;;;;8.42;92.79;99644.72;6219658;23;20450;-73
2022/11/04 06:09:59;;;;;;;6.43;1.10;;;;;;;8.56;92.48;99636.97;6237993;23;20022;-73
2022/11/04 06:13:03;;;;;;;8.95;1.00;;;;;;;8.61;92.47;99640.16;6240229;23;20509;-73
2022/11/04 06:16:12;;;;;;;5.65;1.15;;;;;;;8.83;91.55;99628.44;6239916;22;20501;-73
2022/11/04 06:19:15;;;;;;;7.40;1.30;;;;;;;8.63;92.47;99634.00;6240151;23;20487;-73
2022/11/04 06:22:20;;;;;;;6.00;0.90;;;;;;;8.75;91.95;99635.91;6221245;23;20463;-73
2022/11/04 06:25:25;;;;;;;8.00;2.42;;;;;;;8.68;91.69;99643.25;6238876;23;20513;-73
2022/11/04 06:28:30;;;;;;;7.47;2.38;;;;;;;8.52;92.06;99630.25;6220654;23;20026;-73
2022/11/04 06:31:35;;;;;;;7.13;2.22;;;;;;;8.36;92.43;99635.47;6239020;23;20356;-73
2022/11/04 06:34:40;;;;;;;7.53;2.00;;;;;;;8.49;91.91;99648.69;6239153;23;20347;-73
2022/11/04 06:37:43;;;;;;;12.90;1.80;;;;;;;8.45;91.62;99656.75;6239332;23;20043;-73
2022/11/04 06:40:47;;;;;;;5.00;1.52;;;;;;;8.29;92.30;99654.13;6238396;23;20050;-73
2022/11/04 06:43:52;;;;;;;7.15;1.42;;;;;;;8.24;91.89;99670.03;6218755;23;20149;-73
2022/11/04 06:46:56;;;;;;;5.57;1.38;;;;;;;8.38;90.94;99677.94;6238437;23;20114;-73
2022/11/04 06:50:01;;;;;;;11.70;1.40;;;;;;;8.33;91.30;99681.72;6238340;23;20024;-73
2022/11/04 06:53:05;;;;;;;8.95;1.65;;;;;;;8.36;91.64;99681.53;6238503;23;20027;-73
2022/11/04 06:56:09;;;;;;;7.10;1.42;;;;;;;8.40;91.54;99677.84;6239256;23;20074;-73
2022/11/04 06:59:18;;;;;;;6.22;1.55;;;;;;;8.46;92.16;99687.94;6240021;23;20026;-73
2022/11/04 07:02:22;;;;;;;5.85;2.00;;;;;;;8.53;92.22;99684.03;6238112;23;20027;-73
2022/11/04 07:05:25;;;;;;;;;;;;;;;8.36;93.19;99686.75;6239635;23;20019;-73
2022/11/04 07:08:29;;;;;;;32.20;1.80;;;;;;;8.29;93.39;99691.44;6240981;23;19914;-73
2022/11/04 07:11:38;;;;;;;3.63;1.60;;;;;;;8.36;93.55;99697.16;6241052;23;20042;-73
2022/11/04 07:14:41;;;;;;;4.75;1.17;;;;;;;8.40;93.20;99693.47;6240474;22;20202;-73
2022/11/04 07:17:44;;;;;;;;;;;;;;;8.26;92.96;99695.97;6241637;23;20356;-73
2022/11/04 07:20:48;;;;;;;7.72;1.08;;;;;;;8.42;92.79;99707.25;6241096;23;19914;-73
2022/11/04 07:23:52;;;;;;;7.38;1.08;;;;;;;8.24;93.11;99711.72;6241991;23;20407;-73
2022/11/04 07:26:56;;;;;;;7.47;1.50;;;;;;;8.40;92.56;99729.97;6241209;23;20035;-73
2022/11/04 07:30:01;;;;;;;10.27;2.42;;;;;;;8.31;93.14;99725.22;6239100;23;20026;-73
2022/11/04 07:33:04;;;;;;;13.93;7.05;;;;;;;8.32;93.34;99732.09;6220048;23;20027;-73
2022/11/04 07:36:12;;;;;;;8.68;4.70;;;;;;;8.23;93.59;99738.69;6238551;23;20023;-73
2022/11/04 07:39:15;;;;;;;9.93;4.22;;;;;;;8.32;93.56;99737.31;6240927;23;20035;-73
2022/11/04 07:42:19;;;;;;;9.35;4.72;;;;;;;8.27;94.32;99742.78;6241734;23;20103;-72
2022/11/04 07:45:29;;;;;;;6.72;3.20;;;;;;;8.51;93.12;99748.41;6222164;23;20052;-73
2022/11/04 07:48:35;;;;;;;8.88;5.30;;;;;;;8.41;93.55;99752.47;6240804;23;20031;-73
2022/11/04 07:51:38;;;;;;;11.27;5.97;;;;;;;8.54;92.90;99755.22;6240759;23;20055;-73
2022/11/04 07:54:42;;;;;;;15.63;7.45;;;;;;;8.63;92.51;99746.91;6240167;23;20023;-73
2022/11/04 07:57:47;;;;;;;8.25;3.90;;;;;;;8.65;92.80;99749.41;6240513;23;20111;-73
2022/11/04 08:00:57;;;;;;;9.13;3.97;;;;;;;8.77;92.16;99746.09;6240605;23;20058;-73
2022/11/04 08:04:00;;;;;;;7.07;3.80;;;;;;;8.88;91.58;99748.94;6239846;23;20147;-73
2022/11/04 08:07:08;;;;;;;25.27;14.95;;;;;;;8.92;91.63;99747.84;6240462;23;20488;-73
2022/11/04 08:10:12;;;;;;;46.85;30.15;;;;;;;8.75;92.91;99745.38;6239350;23;20107;-73
2022/11/04 08:13:15;;;;;;;34.28;24.13;;;;;;;8.92;91.97;99742.63;6240050;23;20059;-73
2022/11/04 08:16:21;;;;;;;23.02;14.52;;;;;;;8.84;92.69;99750.91;6242439;22;20086;-73
2022/11/04 08:19:25;;;;;;;28.83;20.60;;;;;;;8.95;92.63;99747.66;6221003;23;20026;-73
2022/11/04 08:22:29;;;;;;;20.83;11.63;;;;;;;8.94;92.50;99751.19;6240236;23;20023;-73
2022/11/04 08:25:32;;;;;;;6.38;3.20;;;;;;;8.87;92.26;99749.88;6220794;23;20348;-73
2022/11/04 08:28:37;;;;;;;6.95;1.40;;;;;;;8.96;91.22;99740.66;6240165;23;20031;-73
2022/11/04 08:31:41;;;;;;;7.72;1.55;;;;;;;9.13;91.13;99734.50;6240610;23;20027;-73
2022/11/04 08:34:44;;;;;;;6.10;2.22;;;;;;;9.29;90.35;99732.66;6241379;23;20398;-73
2022/11/04 08:37:48;;;;;;;8.52;4.20;;;;;;;9.20;90.35;99730.59;6241197;23;20062;-73
2022/11/04 08:40:56;;;;;;;39.00;20.13;;;;;;;9.17;90.76;99733.38;6240418;23;20078;-73
2022/11/04 08:44:02;;;;;;;12.40;5.10;;;;;;;9.29;89.95;99730.03;6240293;23;20482;-73
2022/11/04 08:47:06;;;;;;;6.13;2.10;;;;;;;9.42;89.16;99725.75;6239327;23;20046;-73
2022/11/04 08:50:10;;;;;;;10.95;2.25;;;;;;;9.44;88.07;99721.28;6240284;23;20540;-73
2022/11/04 08:53:14;;;;;;;5.75;1.45;;;;;;;9.58;88.37;99727.44;6240304;23;20371;-73
2022/11/04 08:56:19;;;;;;;9.13;2.08;;;;;;;9.49;90.18;99723.63;6240784;23;20023;-73
2022/11/04 08:59:23;;;;;;;7.18;2.58;;;;;;;9.62;90.61;99731.53;6222367;23;20023;-73
2022/11/04 09:02:27;;;;;;;10.40;4.85;;;;;;;9.76;90.42;99741.97;6221606;23;20027;-73
2022/11/04 09:05:32;;;;;;;9.35;2.33;;;;;;;9.77;90.83;99736.66;6240145;23;20023;-72
2022/11/04 09:08:39;;;;;;;4.85;1.40;;;;;;;9.84;91.55;99728.44;6239988;23;20027;-73
2022/11/04 09:11:43;;;;;;;9.43;1.55;;;;;;;9.88;90.87;99737.75;6239965;23;20050;-73
2022/11/04 09:14:48;;;;;;;10.85;3.90;;;;;;;9.98;90.10;99729.25;6238959;22;20090;-73
2022/11/04 09:17:52;;;;;;;7.00;1.77;;;;;;;9.97;90.10;99727.59;6240023;23;20139;-73
2022/11/04 09:21:01;;;;;;;7.68;1.75;;;;;;;10.05;90.29;99723.66;6240597;23;20347;-73
2022/11/04 09:24:07;;;;;;;6.68;1.15;;;;;;;10.18;89.76;99719.34;6240732;23;20067;-73
2022/11/04 09:27:13;;;;;;;7.38;1.70;;;;;;;10.25;89.09;99716.25;6240721;23;20104;-73
2022/11/04 09:30:17;;;;;;;5.53;0.95;;;;;;;10.22;90.35;99726.88;6239446;23;20561;-73
2022/11/04 09:33:21;;;;;;;5.43;1.60;;;;;;;10.25;90.35;99724.06;6221725;23;20043;-73
2022/11/04 09:36:29;;;;;;;7.15;1.10;;;;;;;10.39;89.67;99723.22;6240057;23;20039;-73
2022/11/04 09:39:32;;;;;;;7.50;1.42;;;;;;;10.34;88.87;99719.22;6238611;23;20348;-73
2022/11/04 09:42:55;;;;;;;4.82;1.25;;;;;;;10.37;88.53;99706.81;6239426;23;20063;-73
2022/11/04 09:46:01;;;;;;;5.57;1.52;;;;;;;10.44;88.46;99708.09;6240462;23;20039;-73
2022/11/04 09:49:09;;;;;;;5.50;0.95;;;;;;;10.53;89.53;99713.66;6240104;23;20027;-73
2022/11/04 09:52:33;;;;;;;8.45;1.65;;;;;;;10.67;90.27;99710.97;6240091;23;20102;-73
2022/11/04 09:55:45;;;;;;;6.13;1.20;;;;;;;10.78;90.12;99718.94;6239392;23;20061;-73
2022/11/04 09:58:51;;;;;;;10.80;1.40;;;;;;;10.83;90.95;99727.34;6238289;23;20146;-73
2022/11/04 10:02:11;;;;;;;5.22;1.17;;;;;;;10.88;91.04;99725.28;6239516;23;20050;-73
2022/11/04 10:05:17;;;;;;;5.30;1.15;;;;;;;10.98;90.69;99725.50;6239304;23;20068;-73
2022/11/04 10:08:38;;;;;;;5.43;1.50;;;;;;;10.94;90.50;99724.88;6239210;23;20387;-73
2022/11/04 10:11:59;;;;;;;7.78;1.60;;;;;;;11.03;89.56;99722.56;6238400;23;20134;-73
2022/11/04 10:15:17;;;;;;;5.88;1.35;;;;;;;11.05;89.58;99723.31;6238371;22;20462;-73
2022/11/04 10:18:33;;;;;;;5.63;1.10;;;;;;;11.01;89.06;99719.19;6220225;23;20368;-73
2022/11/04 10:22:06;;;;;;;6.82;1.40;;;;;;;11.15;88.97;99732.19;6239767;23;20099;-73
2022/11/04 10:25:20;;;;;;;7.45;1.30;;;;;;;11.17;89.59;99730.34;6239184;23;20466;-73
2022/11/04 10:28:42;;;;;;;4.85;1.40;;;;;;;11.21;90.00;99734.41;6239123;23;20568;-73
2022/11/04 10:31:46;;;;;;;6.35;1.63;;;;;;;11.25;89.44;99728.03;6203499;23;20071;-73
2022/11/04 10:35:02;;;;;;;8.02;1.33;;;;;;;11.20;88.88;99730.13;6240068;23;20058;-73
2022/11/04 10:38:32;;;;;;;5.80;1.45;;;;;;;11.07;88.04;99734.47;6239066;23;20046;-73
2022/11/04 10:41:39;;;;;;;4.10;1.33;;;;;;;11.14;87.79;99738.38;6237965;23;20552;-73
2022/11/04 10:44:45;;;;;;;7.95;1.38;;;;;;;11.29;87.32;99729.47;6236988;23;20066;-73
2022/11/04 10:48:05;;;;;;;5.05;1.90;;;;;;;11.45;87.37;99724.03;6239383;23;20038;-73
2022/11/04 10:51:08;;;;;;;8.07;1.83;;;;;;;11.30;87.03;99733.78;6235364;23;20023;-73
2022/11/04 10:54:12;;;;;;;5.50;1.40;;;;;;;11.27;87.05;99726.16;6240167;23;20086;-73
2022/11/04 10:57:23;;;;;;;8.15;1.85;;;;;;;11.35;86.71;99726.44;6241722;23;20042;-73
2022/11/04 11:00:40;;;;;;;9.90;1.83;;;;;;;11.37;86.19;99736.81;6241939;23;20027;-73
2022/11/04 11:03:43;;;;;;;7.93;1.90;;;;;;;11.32;88.78;99729.28;6222628;23;20027;-73
2022/11/04 11:06:48;;;;;;;8.88;1.58;;;;;;;11.34;88.94;99730.00;6241726;23;20082;-75
2022/11/04 11:09:59;;;;;;;7.40;2.20;;;;;;;11.35;89.16;99723.81;6242857;23;20085;-77
2022/11/04 11:13:06;;;;;;;8.60;1.60;;;;;;;11.39;88.63;99730.56;6242930;23;20073;-77
2022/11/04 11:19:58;;;;;;;8.52;1.92;;;;;;;11.19;86.72;99723.19;6242756;23;20065;-77
2022/11/04 11:23:08;;;;;;;9.25;1.63;;;;;;;11.45;87.33;99723.19;6242057;23;20022;-77
2022/11/04 11:26:17;;;;;;;6.25;1.52;;;;;;;11.68;86.78;99722.47;6242423;23;20074;-77
2022/11/04 11:29:41;;;;;;;7.75;1.65;;;;;;;11.70;86.99;99723.19;6242129;23;20023;-78
2022/11/04 11:32:52;;;;;;;7.40;1.77;;;;;;;11.62;87.20;99715.88;6242249;23;20324;-78
2022/11/04 11:36:03;;;;;;;7.78;2.03;;;;;;;11.53;87.35;99715.69;6241691;23;20035;-80
2022/11/04 11:39:21;;;;;;;5.90;1.55;;;;;;;11.44;87.39;99717.13;6242473;23;20220;-78
2022/11/04 11:42:25;;;;;;;6.90;2.20;;;;;;;11.51;87.04;99721.00;6224638;23;20051;-78
2022/11/04 11:45:31;;;;;;;6.47;2.17;;;;;;;11.64;85.87;99718.38;6243205;23;20095;-78
2022/11/04 11:48:49;;;;;;;8.50;1.90;;;;;;;11.70;86.29;99727.59;6243027;23;20027;-78
2022/11/04 11:52:15;;;;;;;5.38;2.05;;;;;;;11.64;88.75;99723.59;6239680;23;20487;-78
2022/11/04 11:55:25;;;;;;;8.55;2.70;;;;;;;11.54;89.70;99714.72;6222671;23;20067;-78
2022/11/04 11:58:43;;;;;;;9.40;2.00;;;;;;;11.53;91.83;99724.34;6244406;23;20027;-78
2022/11/04 12:01:59;;;;;;;8.70;2.15;;;;;;;11.68;90.79;99724.22;6240959;23;20078;-78
2022/11/04 12:05:09;;;;;;;7.25;1.85;;;;;;;11.69;89.02;99729.38;6240856;23;20070;-78
2022/11/04 12:08:40;;;;;;;11.32;2.85;;;;;;;11.44;86.22;99737.25;6242065;23;20057;-78
2022/11/04 12:12:00;;;;;;;12.70;2.33;;;;;;;11.59;84.75;99726.56;6242653;23;20051;-78
2022/11/04 12:15:27;;;;;;;5.07;1.65;;;;;;;11.56;84.61;99725.94;6239738;22;20023;-78
2022/11/04 12:18:46;;;;;;;5.18;1.55;;;;;;;11.46;84.75;99730.13;6240692;23;20042;-78
2022/11/04 12:22:16;;;;;;;3.78;0.80;;;;;;;11.23;84.75;99734.28;6240237;23;20074;-78
2022/11/04 12:25:29;;;;;;;9.40;3.97;;;;;;;11.26;84.55;99734.91;6240366;23;20138;-78
2022/11/04 12:28:44;;;;;;;9.45;3.97;;;;;;;11.47;84.74;99740.47;6240677;23;20530;-78
2022/11/04 12:31:57;;;;;;;6.43;3.28;;;;;;;11.52;85.44;99745.38;6240251;23;20517;-78
2022/11/04 12:35:15;;;;;;;5.28;1.70;;;;;;;11.58;84.10;99747.59;6239005;23;20077;-78
2022/11/04 12:39:01;;;;;;;8.43;2.60;;;;;;;11.53;83.70;99744.47;6240273;23;20530;-78
2022/11/04 12:42:20;;;;;;;7.68;3.80;;;;;;;11.31;87.45;99752.94;6240891;23;20047;-78
2022/11/04 12:45:33;;;;;;;13.70;4.60;;;;;;;11.26;85.99;99748.00;6241812;23;20074;-78
2022/11/04 12:49:10;;;;;;;6.43;2.90;;;;;;;11.20;85.68;99751.06;6240946;23;20378;-78
2022/11/04 12:52:56;;;;;;;8.02;2.83;;;;;;;11.16;86.31;99746.94;6241383;23;20022;-78
2022/11/04 12:56:11;;;;;;;5.30;1.23;;;;;;;11.25;85.07;99751.56;6228624;23;20050;-78
2022/11/04 12:59:26;;;;;;;7.10;2.05;;;;;;;11.31;85.05;99760.78;6247120;23;20046;-77
2022/11/04 13:02:47;;;;;;;8.77;4.13;;;;;;;11.36;84.96;99754.31;6241592;23;20023;-78
2022/11/04 13:06:03;;;;;;;8.68;2.95;;;;;;;11.48;85.19;99757.03;6241328;23;20066;-78
2022/11/04 13:09:16;;;;;;;6.07;1.73;;;;;;;11.61;84.16;99747.38;6223300;23;20090;-77
2022/11/04 13:12:25;;;;;;;8.43;5.00;;;;;;;11.80;82.69;99753.03;6241262;23;20073;-78
2022/11/04 13:15:45;;;;;;;11.20;3.38;;;;;;;11.81;82.97;99756.50;6241027;22;20089;-78
2022/11/04 13:18:51;;;;;;;6.00;2.00;;;;;;;11.78;83.94;99760.16;6242103;23;20030;-78
2022/11/04 13:22:28;;;;;;;4.35;1.25;;;;;;;11.69;83.21;99752.94;6240907;23;20038;-78
2022/11/04 13:25:54;;;;;;;5.72;2.13;;;;;;;11.80;81.71;99744.31;6241319;23;20466;-78
2022/11/04 13:29:20;;;;;;;3.60;1.30;;;;;;;11.76;82.94;99751.56;6240755;23;20073;-78
2022/11/04 13:33:02;;;;;;;4.35;1.48;;;;;;;11.44;83.67;99758.19;6241362;23;20027;-78
2022/11/04 13:36:06;;;;;;;5.53;2.17;;;;;;;11.23;83.00;99763.94;6222751;23;20038;-77
2022/11/04 13:39:29;;;;;;;4.85;1.40;;;;;;;11.26;84.41;99779.41;6240862;23;20509;-76
2022/11/04 13:42:46;;;;;;;4.95;1.52;;;;;;;11.21;84.51;99778.91;6241135;23;20023;-77
2022/11/04 13:45:55;;;;;;;3.80;1.58;;;;;;;11.28;82.11;99785.38;6238717;23;20133;-77
2022/11/04 13:49:38;;;;;;;11.65;5.35;;;;;;;11.38;82.42;99785.59;6246659;23;20027;-78
2022/11/04 13:53:17;;;;;;;8.73;5.25;;;;;;;11.35;80.43;99785.81;6233525;23;20034;-77
2022/11/04 13:56:37;;;;;;;4.82;2.10;;;;;;;11.41;80.40;99791.47;6248232;23;20094;-77
2022/11/04 14:00:24;;;;;;;3.92;1.30;;;;;;;11.39;81.78;99802.97;6223084;23;20063;-76
2022/11/04 14:04:30;;;;;;;3.80;1.50;;;;;;;11.40;82.46;99805.50;6238461;23;20031;-77
2022/11/04 14:12:12;;;;;;;4.15;0.90;;;;;;;11.33;84.01;99814.72;6241020;23;20151;-77
2022/11/04 14:16:15;;;;;;;4.45;1.70;;;;;;;11.12;85.91;99808.28;6240002;22;20344;-77
2022/11/04 14:20:07;;;;;;;7.00;3.30;;;;;;;11.46;85.40;99811.28;6222922;23;20505;-77
2022/11/04 14:23:23;;;;;;;5.38;1.67;;;;;;;11.57;87.38;99817.44;6240171;23;20390;-77
2022/11/04 14:26:43;;;;;;;5.32;2.17;;;;;;;11.71;85.57;99819.16;6240548;23;20085;-77
2022/11/04 14:29:53;;;;;;;4.38;1.90;;;;;;;11.64;88.24;99834.41;6237675;23;20443;-76
2022/11/04 14:33:24;;;;;;;5.63;2.05;;;;;;;11.73;89.12;99827.72;6238949;23;20074;-77
2022/11/04 14:37:34;;;;;;;5.70;1.10;;;;;;;11.77;89.43;99842.31;6238035;23;20159;-77
2022/11/04 14:40:52;;;;;;;4.45;1.20;;;;;;;11.72;90.24;99835.69;6241066;23;20073;-77
2022/11/04 14:44:02;;;;;;;4.50;1.20;;;;;;;11.77;88.90;99844.06;6240422;23;20453;-77
2022/11/04 14:47:13;;;;;;;4.72;1.30;;;;;;;11.70;88.69;99853.28;6240069;23;20039;-77
2022/11/04 14:50:27;;;;;;;5.25;1.10;;;;;;;11.64;88.63;99859.78;6240057;23;20073;-77
2022/11/04 14:53:36;;;;;;;7.82;1.50;;;;;;;11.66;89.60;99864.91;6240011;23;20023;-77
2022/11/04 14:56:41;;;;;;;5.40;1.33;;;;;;;11.64;88.65;99859.78;6239344;23;20027;-77
2022/11/04 14:59:58;;;;;;;4.80;1.30;;;;;;;11.45;89.48;99869.78;6240951;23;20042;-77
2022/11/04 15:03:37;;;;;;;5.25;2.22;;;;;;;11.21;90.75;99877.50;6240375;23;20066;-77
2022/11/04 15:06:43;;;;;;;4.07;1.20;;;;;;;11.23;91.40;99881.69;6240352;23;20034;-77
2022/11/04 15:09:50;;;;;;;2.95;1.08;;;;;;;11.21;91.97;99886.19;6240229;23;20023;-77
2022/11/04 15:13:01;;;;;;;6.00;1.40;;;;;;;11.09;92.32;99886.97;6239915;23;20050;-77
2022/11/04 15:16:29;;;;;;;5.70;1.85;;;;;;;11.15;92.57;99891.81;6239744;22;20050;-77
2022/11/04 15:20:24;;;;;;;16.02;8.90;;;;;;;11.31;92.43;99900.34;6205164;23;20031;-77
2022/11/04 15:23:56;;;;;;;9.38;3.33;;;;;;;11.17;93.59;99896.00;6220797;23;20023;-77
2022/11/04 15:27:14;;;;;;;3.58;1.77;;;;;;;11.20;93.88;99901.97;6238001;23;20059;-77
